createdAt,value
2019-05-19T00:02:17.378Z,13.50
2019-05-19T00:04:49.356Z,13.52
2019-05-19T00:07:21.352Z,13.49
2019-05-19T00:09:53.329Z,13.50
2019-05-19T00:12:25.324Z,13.42
2019-05-19T00:14:57.301Z,13.42
2019-05-19T00:17:29.273Z,13.46
2019-05-19T00:20:01.274Z,13.46
2019-05-19T00:22:33.238Z,13.41
2019-05-19T00:25:05.390Z,13.36
2019-05-19T00:27:37.397Z,13.33
2019-05-19T00:30:09.607Z,13.31
2019-05-19T00:32:41.610Z,13.25
2019-05-19T00:35:13.628Z,13.28
2019-05-19T00:37:45.606Z,13.26
2019-05-19T00:40:17.584Z,13.30
2019-05-19T00:42:49.558Z,13.25
2019-05-19T00:45:21.527Z,13.27
2019-05-19T00:47:53.527Z,13.28
2019-05-19T00:50:25.503Z,13.25
2019-05-19T00:52:57.495Z,13.25
2019-05-19T00:55:29.600Z,13.21
2019-05-19T00:58:01.679Z,13.26
2019-05-19T01:00:33.648Z,13.15
2019-05-19T01:03:05.637Z,13.21
2019-05-19T01:05:37.648Z,13.17
2019-05-19T01:08:09.685Z,13.14
2019-05-19T01:10:41.686Z,13.15
2019-05-19T01:13:13.672Z,13.09
2019-05-19T01:15:45.616Z,13.05
2019-05-19T01:18:17.630Z,13.05
2019-05-19T01:20:49.881Z,13.07
2019-05-19T01:23:21.861Z,13.11
2019-05-19T01:25:53.828Z,13.14
2019-05-19T01:28:25.855Z,13.17
2019-05-19T01:30:57.791Z,13.21
2019-05-19T01:33:30.568Z,13.11
2019-05-19T01:36:02.576Z,13.16
2019-05-19T01:38:34.561Z,13.15
2019-05-19T01:41:06.517Z,13.05
2019-05-19T01:43:38.485Z,13.04
2019-05-19T01:46:10.462Z,13.06
2019-05-19T01:48:42.427Z,13.12
2019-05-19T01:51:14.411Z,13.06
2019-05-19T01:53:46.383Z,13.05
2019-05-19T01:56:18.342Z,13.06
2019-05-19T01:58:50.311Z,13.03
2019-05-19T02:01:22.257Z,13.04
2019-05-19T02:03:54.239Z,13.02
2019-05-19T02:06:26.182Z,13.00
2019-05-19T02:08:58.174Z,12.96
2019-05-19T02:11:30.179Z,12.92
2019-05-19T02:14:02.268Z,12.90
2019-05-19T02:16:34.205Z,12.88
2019-05-19T02:19:06.198Z,12.86
2019-05-19T02:21:38.128Z,12.82
2019-05-19T02:24:10.118Z,12.87
2019-05-19T02:26:42.057Z,12.88
2019-05-19T02:29:14.027Z,12.93
2019-05-19T02:31:45.984Z,12.91
2019-05-19T02:34:17.980Z,12.95
2019-05-19T02:36:49.969Z,12.89
2019-05-19T02:39:21.927Z,12.90
2019-05-19T02:41:53.978Z,12.89
2019-05-19T02:44:26.677Z,12.85
2019-05-19T02:46:58.642Z,12.74
2019-05-19T02:49:31.846Z,12.70
2019-05-19T02:52:04.281Z,12.67
2019-05-19T02:54:36.274Z,12.67
2019-05-19T02:57:08.517Z,12.70
2019-05-19T02:59:40.653Z,12.60
2019-05-19T03:02:13.842Z,12.61
2019-05-19T03:04:45.820Z,12.65
2019-05-19T03:07:17.795Z,12.65
2019-05-19T03:09:50.103Z,12.67
2019-05-19T03:12:22.127Z,12.69
2019-05-19T03:14:54.090Z,12.67
2019-05-19T03:17:26.074Z,12.66
2019-05-19T03:19:58.048Z,12.59
2019-05-19T03:22:30.007Z,12.64
2019-05-19T03:25:01.995Z,12.69
2019-05-19T03:27:33.951Z,12.62
2019-05-19T03:30:26.070Z,12.59
2019-05-19T03:33:00.035Z,12.60
2019-05-19T03:35:32.073Z,12.60
2019-05-19T03:38:04.029Z,12.46
2019-05-19T03:40:35.971Z,12.60
2019-05-19T03:43:07.937Z,12.57
2019-05-19T03:45:40.068Z,12.51
2019-05-19T03:48:12.030Z,12.52
2019-05-19T03:50:43.977Z,12.50
2019-05-19T03:53:15.968Z,12.50
2019-05-19T03:55:47.926Z,12.44
2019-05-19T03:58:20.078Z,12.49
2019-05-19T04:00:52.102Z,12.54
2019-05-19T04:03:24.121Z,12.55
2019-05-19T04:05:56.107Z,12.55
2019-05-19T04:08:28.090Z,12.54
2019-05-19T04:11:00.082Z,12.58
2019-05-19T04:13:32.047Z,12.60
2019-05-19T04:16:03.991Z,12.69
2019-05-19T04:18:35.955Z,12.77
2019-05-19T04:21:07.931Z,12.84
2019-05-19T04:23:39.889Z,12.89
2019-05-19T04:26:11.847Z,12.90
2019-05-19T04:28:43.846Z,12.98
2019-05-19T04:31:15.817Z,13.06
2019-05-19T04:33:47.904Z,13.05
2019-05-19T04:36:19.955Z,13.16
2019-05-19T04:38:51.946Z,13.30
2019-05-19T04:41:23.915Z,13.34
2019-05-19T04:43:55.903Z,13.43
2019-05-19T04:46:27.909Z,13.55
2019-05-19T04:48:59.873Z,13.63
2019-05-19T04:51:31.987Z,13.71
2019-05-19T04:54:03.996Z,13.79
2019-05-19T04:56:35.963Z,13.80
2019-05-19T04:59:09.368Z,13.81
2019-05-19T05:01:41.380Z,13.82
2019-05-19T05:04:29.799Z,13.88
2019-05-19T05:07:01.862Z,14.05
2019-05-19T05:09:33.904Z,14.34
2019-05-19T05:12:05.830Z,14.47
2019-05-19T05:14:37.825Z,14.67
2019-05-19T05:17:09.758Z,14.87
2019-05-19T05:19:41.767Z,15.11
2019-05-19T05:22:21.630Z,15.58
2019-05-19T05:24:47.594Z,15.97
2019-05-19T05:27:19.565Z,16.40
2019-05-19T05:29:51.603Z,16.56
2019-05-19T05:32:23.595Z,16.67
2019-05-19T05:34:55.597Z,16.58
2019-05-19T05:37:27.573Z,16.77
2019-05-19T05:39:59.647Z,16.69
2019-05-19T05:42:32.134Z,16.81
2019-05-19T05:45:04.605Z,17.10
2019-05-19T05:47:36.615Z,17.42
2019-05-19T05:50:08.694Z,17.60
2019-05-19T05:52:40.680Z,17.89
2019-05-19T05:55:12.668Z,18.24
2019-05-19T05:57:44.670Z,18.44
2019-05-19T06:00:16.777Z,18.48
2019-05-19T06:02:48.770Z,18.60
2019-05-19T06:05:20.760Z,18.98
2019-05-19T06:07:52.706Z,19.16
2019-05-19T06:10:24.783Z,19.58
2019-05-19T06:12:56.816Z,19.86
2019-05-19T06:15:28.816Z,19.98
2019-05-19T06:18:00.784Z,20.11
2019-05-19T06:20:32.974Z,20.27
2019-05-19T06:23:05.020Z,20.39
2019-05-19T06:25:37.050Z,20.10
2019-05-19T06:28:09.084Z,20.03
2019-05-19T06:30:41.240Z,19.88
2019-05-19T06:33:13.241Z,19.74
2019-05-19T06:35:45.198Z,19.54
2019-05-19T06:38:17.307Z,19.47
2019-05-19T06:40:49.300Z,19.52
2019-05-19T06:43:21.317Z,19.70
2019-05-19T06:45:53.308Z,19.46
2019-05-19T06:48:25.311Z,19.38
2019-05-19T06:50:57.286Z,19.56
2019-05-19T06:53:29.267Z,19.89
2019-05-19T06:56:01.208Z,19.87
2019-05-19T06:58:33.205Z,19.98
2019-05-19T07:01:05.196Z,20.18
2019-05-19T07:03:37.266Z,20.04
2019-05-19T07:06:09.270Z,20.14
2019-05-19T07:08:43.688Z,20.28
2019-05-19T07:11:15.730Z,20.42
2019-05-19T07:13:47.789Z,20.56
2019-05-19T07:16:19.761Z,20.96
2019-05-19T07:18:51.752Z,21.02
2019-05-19T07:23:55.274Z,21.08
2019-05-19T07:26:27.249Z,21.00
2019-05-19T07:28:59.248Z,20.91
2019-05-19T07:31:31.238Z,20.81
2019-05-19T07:34:03.290Z,20.87
2019-05-19T07:36:35.296Z,21.05
2019-05-19T07:39:07.312Z,21.51
2019-05-19T07:41:39.288Z,21.96
2019-05-19T07:44:11.301Z,22.55
2019-05-19T07:46:43.395Z,22.90
2019-05-19T07:49:15.418Z,23.27
2019-05-19T07:51:47.424Z,23.29
2019-05-19T07:54:19.452Z,23.18
2019-05-19T07:56:51.423Z,22.86
2019-05-19T07:59:23.525Z,22.65
2019-05-19T08:01:55.531Z,22.57
2019-05-19T08:04:27.545Z,22.44
2019-05-19T08:06:59.564Z,22.22
2019-05-19T08:09:31.544Z,21.88
2019-05-19T08:12:03.648Z,21.75
2019-05-19T08:14:35.611Z,21.65
2019-05-19T08:17:07.676Z,21.71
2019-05-19T08:19:39.691Z,21.56
2019-05-19T08:22:11.662Z,21.47
2019-05-19T08:24:43.700Z,21.53
2019-05-19T08:27:15.688Z,21.52
2019-05-19T08:29:47.731Z,21.64
2019-05-19T08:32:19.755Z,21.87
2019-05-19T08:34:51.775Z,21.97
2019-05-19T08:37:23.856Z,21.89
2019-05-19T08:39:55.881Z,21.92
2019-05-19T08:42:27.907Z,21.86
2019-05-19T08:44:59.956Z,21.76
2019-05-19T08:47:31.952Z,21.68
2019-05-19T08:50:04.595Z,21.64
2019-05-19T08:52:36.643Z,21.61
2019-05-19T08:55:08.654Z,21.70
2019-05-19T08:57:40.687Z,21.79
2019-05-19T09:00:13.498Z,21.65
2019-05-19T09:02:45.673Z,21.80
2019-05-19T09:05:17.735Z,21.71
2019-05-19T09:07:49.770Z,21.71
2019-05-19T09:10:21.770Z,22.07
2019-05-19T09:12:53.867Z,22.25
2019-05-19T09:15:25.889Z,22.39
2019-05-19T09:17:57.908Z,22.73
2019-05-19T09:20:29.881Z,23.12
2019-05-19T09:23:01.942Z,23.31
2019-05-19T09:25:33.960Z,23.54
2019-05-19T09:28:05.986Z,23.56
2019-05-19T09:30:38.084Z,23.55
2019-05-19T09:33:10.183Z,23.51
2019-05-19T09:35:42.179Z,23.45
2019-05-19T09:38:14.199Z,23.50
2019-05-19T09:40:46.228Z,23.71
2019-05-19T09:43:18.321Z,23.64
2019-05-19T09:45:50.315Z,23.49
2019-05-19T09:48:22.354Z,23.56
2019-05-19T09:50:54.334Z,23.98
2019-05-19T09:53:26.395Z,24.24
2019-05-19T09:55:58.455Z,24.08
2019-05-19T09:58:30.463Z,23.91
2019-05-19T10:01:02.543Z,23.75
2019-05-19T10:03:34.631Z,23.68
2019-05-19T10:06:06.627Z,23.79
2019-05-19T10:08:44.385Z,23.79
2019-05-19T10:12:05.035Z,23.65
2019-05-19T10:14:37.055Z,23.54
2019-05-19T10:17:09.044Z,23.59
2019-05-19T10:19:41.079Z,23.67
2019-05-19T10:22:13.215Z,23.74
2019-05-19T10:24:59.212Z,23.80
2019-05-19T10:27:21.624Z,23.83
2019-05-19T10:29:53.219Z,23.71
2019-05-19T10:32:25.193Z,23.65
2019-05-19T10:34:57.273Z,23.67
2019-05-19T10:37:29.264Z,23.64
2019-05-19T10:40:01.327Z,23.75
2019-05-19T10:42:33.539Z,23.98
2019-05-19T10:45:08.143Z,23.71
2019-05-19T10:47:40.088Z,23.71
2019-05-19T10:50:12.785Z,23.87
2019-05-19T10:52:44.937Z,23.96
2019-05-19T10:55:17.387Z,23.98
2019-05-19T10:57:49.361Z,23.87
2019-05-19T11:00:21.596Z,23.95
2019-05-19T11:02:53.597Z,24.00
2019-05-19T11:05:25.654Z,24.10
2019-05-19T11:07:57.620Z,24.22
2019-05-19T11:10:29.684Z,24.41
2019-05-19T11:13:01.713Z,24.51
2019-05-19T11:15:33.728Z,24.52
2019-05-19T11:18:06.556Z,24.38
2019-05-19T11:20:38.713Z,24.37
2019-05-19T11:23:10.706Z,24.17
2019-05-19T11:25:51.206Z,24.15
2019-05-19T11:28:16.680Z,24.27
2019-05-19T11:30:48.740Z,24.28
2019-05-19T11:33:20.780Z,24.27
2019-05-19T11:35:52.797Z,24.34
2019-05-19T11:38:24.858Z,24.20
2019-05-19T11:40:57.363Z,24.19
2019-05-19T11:43:29.427Z,24.15
2019-05-19T11:46:01.423Z,23.96
2019-05-19T11:48:33.453Z,24.02
2019-05-19T11:51:05.502Z,23.86
2019-05-19T11:53:37.504Z,23.83
2019-05-19T11:56:11.550Z,23.78
2019-05-19T11:58:43.537Z,23.94
2019-05-19T12:01:15.539Z,23.92
2019-05-19T12:03:47.575Z,24.06
2019-05-19T12:06:19.541Z,24.27
2019-05-19T12:08:51.567Z,24.24
2019-05-19T12:11:23.587Z,24.35
2019-05-19T12:13:55.601Z,24.36
2019-05-19T12:16:27.607Z,24.43
2019-05-19T12:18:59.643Z,24.46
2019-05-19T12:21:31.627Z,24.59
2019-05-19T12:24:03.705Z,24.63
2019-05-19T12:26:35.721Z,24.59
2019-05-19T12:29:07.795Z,24.58
2019-05-19T12:31:39.822Z,24.51
2019-05-19T12:34:11.887Z,24.36
2019-05-19T12:36:43.874Z,24.27
2019-05-19T12:39:15.939Z,24.07
2019-05-19T12:41:47.937Z,24.02
2019-05-19T12:44:19.955Z,23.79
2019-05-19T12:46:51.953Z,23.89
2019-05-19T12:49:23.964Z,23.97
2019-05-19T12:51:55.961Z,24.02
2019-05-19T12:54:27.999Z,24.30
2019-05-19T12:56:59.996Z,24.25
2019-05-19T12:59:32.029Z,24.56
2019-05-19T13:02:04.011Z,24.36
2019-05-19T13:04:36.077Z,24.57
2019-05-19T13:07:08.086Z,24.61
2019-05-19T13:09:40.097Z,24.51
2019-05-19T13:12:12.906Z,24.33
2019-05-19T13:14:44.927Z,24.16
2019-05-19T13:17:16.918Z,23.95
2019-05-19T13:19:49.067Z,23.88
2019-05-19T13:22:21.060Z,23.81
2019-05-19T13:24:53.116Z,23.70
2019-05-19T13:27:25.085Z,23.57
2019-05-19T13:29:57.091Z,23.46
2019-05-19T13:32:29.076Z,23.37
2019-05-19T13:35:01.109Z,23.33
2019-05-19T13:37:33.174Z,23.39
2019-05-19T13:40:05.152Z,23.49
2019-05-19T13:42:37.151Z,23.60
2019-05-19T13:45:09.499Z,23.79
2019-05-19T13:47:41.530Z,24.09
2019-05-19T13:50:13.551Z,24.14
2019-05-19T13:52:45.591Z,24.29
2019-05-19T13:55:17.617Z,24.34
2019-05-19T13:57:49.626Z,24.44
2019-05-19T14:00:21.622Z,24.54
2019-05-19T14:02:53.703Z,24.45
2019-05-19T14:05:25.682Z,24.44
2019-05-19T14:07:57.699Z,24.38
2019-05-19T14:10:29.729Z,24.19
2019-05-19T14:13:01.767Z,24.15
2019-05-19T14:15:33.796Z,23.99
2019-05-19T14:18:05.834Z,23.78
2019-05-19T14:20:37.839Z,23.66
2019-05-19T14:23:09.854Z,23.56
2019-05-19T14:25:41.861Z,23.51
2019-05-19T14:28:13.907Z,23.56
2019-05-19T14:30:46.017Z,23.62
2019-05-19T14:33:18.047Z,23.68
2019-05-19T14:35:50.061Z,23.71
2019-05-19T14:38:22.054Z,23.70
2019-05-19T14:40:54.097Z,23.67
2019-05-19T14:43:26.357Z,23.74
2019-05-19T14:45:58.378Z,23.71
2019-05-19T14:48:30.407Z,23.19
2019-05-19T14:51:02.534Z,22.67
2019-05-19T14:53:34.571Z,22.00
2019-05-19T14:56:06.568Z,21.61
2019-05-19T14:58:38.608Z,21.40
2019-05-19T15:01:10.636Z,20.89
2019-05-19T15:03:42.659Z,20.52
2019-05-19T15:06:14.689Z,20.15
2019-05-19T15:08:46.773Z,19.58
2019-05-19T15:11:18.881Z,19.01
2019-05-19T15:13:50.921Z,18.27
2019-05-19T15:16:22.919Z,17.97
2019-05-19T15:18:55.024Z,17.40
2019-05-19T15:21:27.075Z,17.06
2019-05-19T15:23:59.104Z,16.86
2019-05-19T15:26:31.114Z,16.71
2019-05-19T15:29:03.164Z,16.59
2019-05-19T15:31:35.395Z,16.62
2019-05-19T15:34:07.428Z,16.66
2019-05-19T15:36:39.452Z,16.65
2019-05-19T15:39:14.459Z,16.64
2019-05-19T15:41:45.560Z,16.69
2019-05-19T15:44:17.655Z,16.71
2019-05-19T15:46:49.681Z,16.70
2019-05-19T15:49:24.750Z,16.50
2019-05-19T15:52:03.301Z,16.49
2019-05-19T15:54:31.048Z,16.66
2019-05-19T15:57:03.125Z,16.70
2019-05-19T15:59:35.190Z,16.65
2019-05-19T16:02:07.297Z,16.63
2019-05-19T16:04:39.419Z,16.58
2019-05-19T16:07:11.537Z,16.53
2019-05-19T16:09:43.617Z,16.60
2019-05-19T16:12:15.697Z,16.44
2019-05-19T16:14:47.755Z,16.33
2019-05-19T16:17:19.783Z,16.18
2019-05-19T16:19:51.827Z,16.29
2019-05-19T16:22:23.873Z,16.25
2019-05-19T16:24:55.928Z,16.25
2019-05-19T16:27:27.950Z,16.31
2019-05-19T16:30:00.015Z,16.40
2019-05-19T16:32:32.045Z,16.27
2019-05-19T16:35:04.194Z,16.25
2019-05-19T16:37:36.304Z,16.34
2019-05-19T16:40:08.396Z,16.47
2019-05-19T16:42:40.609Z,16.52
2019-05-19T16:45:13.018Z,16.58
2019-05-19T16:47:45.045Z,16.59
2019-05-19T16:50:17.298Z,16.65
2019-05-19T16:52:49.741Z,16.68
2019-05-19T16:55:29.028Z,16.70
2019-05-19T16:58:01.036Z,16.60
2019-05-19T17:00:33.139Z,16.73
2019-05-19T17:03:05.281Z,16.82
2019-05-19T17:05:37.316Z,16.74
2019-05-19T17:08:09.484Z,16.77
2019-05-19T17:10:41.552Z,16.79
2019-05-19T17:13:13.644Z,16.69
2019-05-19T17:15:45.683Z,16.69
2019-05-19T17:18:17.789Z,16.65
2019-05-19T17:20:49.888Z,16.62
2019-05-19T17:23:21.997Z,16.60
2019-05-19T17:25:54.112Z,16.59
2019-05-19T17:28:26.127Z,16.56
2019-05-19T17:30:58.229Z,16.61
2019-05-19T17:33:30.301Z,16.57
2019-05-19T17:36:02.377Z,16.58
2019-05-19T17:38:34.504Z,16.49
2019-05-19T17:41:06.520Z,16.44
2019-05-19T17:43:38.606Z,16.40
2019-05-19T17:46:10.698Z,16.43
2019-05-19T17:48:42.785Z,16.44
2019-05-19T17:51:14.919Z,16.49
2019-05-19T17:53:47.029Z,16.43
2019-05-19T17:56:20.025Z,16.30
2019-05-19T17:58:52.296Z,16.27
2019-05-19T18:01:24.327Z,16.24
2019-05-19T18:03:56.383Z,16.03
2019-05-19T18:06:29.871Z,16.04
2019-05-19T18:09:02.749Z,16.01
2019-05-19T18:11:34.904Z,15.96
2019-05-19T18:14:07.025Z,15.98
2019-05-19T18:16:39.238Z,16.03
2019-05-19T18:19:11.375Z,15.95
2019-05-19T18:21:43.364Z,15.87
2019-05-19T18:24:15.453Z,15.82
2019-05-19T18:26:47.512Z,15.82
2019-05-19T18:29:30.460Z,15.72
2019-05-19T18:31:53.501Z,15.65
2019-05-19T18:34:25.590Z,15.65
2019-05-19T18:36:58.371Z,15.63
2019-05-19T18:39:30.521Z,15.67
2019-05-19T18:42:02.595Z,15.66
2019-05-19T18:44:34.770Z,15.66
2019-05-19T18:47:06.886Z,15.69
2019-05-19T18:49:39.003Z,15.56
2019-05-19T18:52:11.156Z,15.42
2019-05-19T18:54:43.406Z,15.45
2019-05-19T18:57:15.605Z,15.28
2019-05-19T18:59:48.077Z,15.32
2019-05-19T19:02:20.278Z,15.41
2019-05-19T19:04:52.455Z,15.45
2019-05-19T19:07:44.121Z,15.45
2019-05-19T19:10:16.209Z,15.38
2019-05-19T19:12:48.699Z,15.40
2019-05-19T19:15:20.769Z,15.42
2019-05-19T19:17:52.826Z,15.43
2019-05-19T19:20:24.894Z,15.51
2019-05-19T19:22:56.957Z,15.60
2019-05-19T19:25:28.993Z,15.57
2019-05-19T19:28:01.030Z,15.56
2019-05-19T19:30:33.105Z,15.54
2019-05-19T19:33:05.133Z,15.59
2019-05-19T19:35:39.633Z,15.61
2019-05-19T19:38:11.328Z,15.66
2019-05-19T19:40:43.355Z,15.68
2019-05-19T19:43:15.446Z,15.67
2019-05-19T19:45:47.479Z,15.76
2019-05-19T19:48:19.515Z,15.66
2019-05-19T19:50:51.640Z,15.46
2019-05-19T19:53:23.716Z,15.44
2019-05-19T19:55:55.731Z,15.44
2019-05-19T19:58:27.814Z,15.50
2019-05-19T20:00:59.850Z,15.55
2019-05-19T20:03:31.948Z,15.59
2019-05-19T20:06:04.070Z,15.66
2019-05-19T20:08:36.134Z,15.67
2019-05-19T20:11:08.197Z,15.62
2019-05-19T20:13:40.280Z,15.64
2019-05-19T20:16:12.369Z,15.60
2019-05-19T20:18:44.494Z,15.59
2019-05-19T20:21:16.631Z,15.53
2019-05-19T20:23:48.765Z,15.48
2019-05-19T20:26:20.781Z,15.52
2019-05-19T20:28:52.827Z,15.55
2019-05-19T20:31:24.906Z,15.59
2019-05-19T20:33:56.982Z,15.62
2019-05-19T20:36:29.033Z,15.61
2019-05-19T20:39:01.077Z,15.56
2019-05-19T20:41:33.099Z,15.57
2019-05-19T20:44:05.178Z,15.58
2019-05-19T20:46:37.232Z,15.61
2019-05-19T20:49:09.309Z,15.58
2019-05-19T20:51:41.303Z,15.60
2019-05-19T20:54:13.341Z,15.58
2019-05-19T20:56:45.358Z,15.58
2019-05-19T20:59:17.640Z,15.63
2019-05-19T21:01:49.658Z,15.53
2019-05-19T21:04:21.677Z,15.49
2019-05-19T21:06:53.699Z,15.48
2019-05-19T21:09:25.728Z,15.48
2019-05-19T21:11:57.749Z,15.47
2019-05-19T21:14:29.792Z,15.48
2019-05-19T21:17:01.822Z,15.48
2019-05-19T21:19:33.861Z,15.46
2019-05-19T21:22:05.927Z,15.36
2019-05-19T21:24:37.928Z,15.31
2019-05-19T21:27:09.931Z,15.28
2019-05-19T21:29:41.897Z,15.28
2019-05-19T21:32:13.917Z,15.29
2019-05-19T21:34:45.939Z,15.27
2019-05-19T21:37:17.961Z,15.27
2019-05-19T21:39:49.967Z,15.28
2019-05-19T21:42:21.967Z,15.28
2019-05-19T21:44:53.950Z,15.30
2019-05-19T21:47:25.970Z,15.29
2019-05-19T21:49:57.981Z,15.30
2019-05-19T21:52:29.963Z,15.28
2019-05-19T21:55:01.972Z,15.28
2019-05-19T21:57:34.001Z,15.23
2019-05-19T22:00:08.985Z,15.17
2019-05-19T22:02:41.016Z,15.14
2019-05-19T22:05:12.981Z,15.07
2019-05-19T22:08:00.385Z,15.05
2019-05-19T22:10:32.494Z,15.00
2019-05-19T22:13:04.474Z,14.98
2019-05-19T22:15:36.467Z,14.98
2019-05-19T22:18:08.458Z,14.93
2019-05-19T22:20:40.425Z,14.84
2019-05-19T22:23:12.593Z,14.85
2019-05-19T22:25:44.589Z,14.83
2019-05-19T22:28:16.594Z,14.79
2019-05-19T22:30:48.625Z,14.78
2019-05-19T22:33:20.661Z,14.73
2019-05-19T22:35:52.637Z,14.69
2019-05-19T22:38:24.661Z,14.70
2019-05-19T22:40:56.648Z,14.70
2019-05-19T22:43:28.654Z,14.73
2019-05-19T22:46:00.655Z,14.62
2019-05-19T22:48:32.634Z,14.68
2019-05-19T22:51:04.634Z,14.57
2019-05-19T22:53:36.633Z,14.50
2019-05-19T22:56:08.676Z,14.49
2019-05-19T22:58:41.638Z,14.54
2019-05-19T23:01:13.796Z,14.58
2019-05-19T23:03:45.788Z,14.55
2019-05-19T23:06:17.775Z,14.57
2019-05-19T23:08:49.824Z,14.63
2019-05-19T23:11:21.780Z,14.59
2019-05-19T23:13:53.794Z,14.60
2019-05-19T23:16:25.738Z,14.59
2019-05-19T23:18:57.701Z,14.53
2019-05-19T23:21:29.658Z,14.51
2019-05-19T23:24:01.644Z,14.52
2019-05-19T23:26:33.717Z,14.50
2019-05-19T23:29:05.734Z,14.50
2019-05-19T23:31:37.676Z,14.50
2019-05-19T23:34:09.680Z,14.49
2019-05-19T23:36:41.643Z,14.49
2019-05-19T23:39:13.640Z,14.45
2019-05-19T23:41:45.573Z,14.40
2019-05-19T23:44:17.585Z,14.39
2019-05-19T23:46:49.552Z,14.42
2019-05-19T23:49:21.552Z,14.45
2019-05-19T23:51:53.504Z,14.45
2019-05-19T23:54:25.464Z,14.47
2019-05-19T23:56:57.416Z,14.48
2019-05-19T23:59:29.388Z,14.51
